Morforte De Lemos, Spain
Current Conditions -  °F | °C
As of 11:00 AM on Sunday 25 Jan 2015 (Local Time) from LEST Reporting Station
Few Clouds Few Clouds  
Wind Chill: 40°   Ceiling: Unl
Heat Index: 45°   Visibility: 6mi
Dew Point: 39°   Wind: 8mph
Humidity: 81%   Direction: 40°NE
Pressure: 30.53"   Gusts: NA
Location:  42.52°N, 7.5°W
Report Text: LEST 251000Z 04007KT 350V070 9999 FEW025 07/04 Q1034 NOSIG
Loading
Personal Weather Stations






























Interactive Weather Map New forecast layout! Learn more

10-Day Weather Forecast

Advertisements
Track Severe Weather on mobile